Flight Track Log - Related Links

Times and Time Zones

All times are in EDT time to prevent confusion due to time zone crossing. See the SKW5315 flight status page for this flight to view local times or setup timezone preferences in your user account.

Time Position Orientation Groundspeed Altitude Reporting Facility
EDT Latitude Longitude Course Direction KTS MPH feet Rate Location/Type
Thu 12:43:12 PM 41.5914 -108.9894 90° East 137 158 9,200  Level Denver Center
Thu 12:44:14 PM 41.6036 -108.9150 78° East 171 197 10,600 1,452 Climbing Denver Center
Thu 12:45:16 PM 41.6108 -108.8467 82° East 187 215 12,200 1,597 Climbing Denver Center
Thu 12:46:00 PM 41.3999 -108.5387 79° East  Level Estimated
Thu 12:46:18 PM 41.6189 -108.7825 80° East 185 213 13,900  Level Denver Center
Thu 12:47:00 PM 41.3673 -108.4513 82° East  Level Estimated
Thu 12:47:20 PM 41.6281 -108.7061 81° East 186 214 15,200  Level Denver Center
Thu 12:48:22 PM 41.6369 -108.6356 80° East 196 226 16,200 1,065 Climbing Denver Center
Thu 12:49:24 PM 41.6475 -108.5481 81° East 210 242 17,400 919 Climbing Denver Center
Thu 12:50:26 PM 41.6556 -108.4717 82° East 216 249 18,100 909 Climbing Denver Center
Thu 12:51:36 PM 41.6661 -108.3708 82° East 216 249 19,400 1,000 Climbing Salt Lake Center
Thu 12:52:38 PM 41.6750 -108.2944 81° East 216 249 20,300 871 Climbing Salt Lake Center
Thu 12:53:40 PM 41.6839 -108.2167 81° East 220 253 21,200 878 Climbing Salt Lake Center
Thu 12:54:41 PM 41.6942 -108.1300 81° East 214 246 22,100 879 Climbing Salt Lake Center
Thu 12:55:36 PM 41.7047 -108.0519 80° East 217 250 22,900 718 Climbing Denver Center
Thu 12:56:38 PM 41.7131 -107.9744 82° East 220 253 23,500 677 Climbing Denver Center
Thu 12:57:40 PM 41.7208 -107.8825 84° East 224 258 24,300 672 Climbing Denver Center
Thu 12:58:43 PM 41.6986 -107.8064 111° Southeast 229 264 24,900 384 Climbing Denver Center
Thu 12:59:45 PM 41.6767 -107.7142 108° East 234 269 25,100 97 Climbing Denver Center
Thu 01:00:47 PM 41.6561 -107.6317 108° East 243 280 25,100  Level Denver Center
Thu 01:01:49 PM 41.6344 -107.5500 110° East 243 280 25,100  Level Denver Center
Thu 01:02:51 PM 41.6100 -107.4558 109° East 241 277 25,100  Level Denver Center
Thu 01:03:53 PM 41.5897 -107.3769 109° East 236 272 25,100  Level Denver Center
Thu 01:05:07 PM 41.5619 -107.2733 110° East 233 268 25,100  Level Denver Center
Thu 01:06:09 PM 41.5383 -107.1836 109° East 230 265 25,100  Level Denver Center
Thu 01:07:11 PM 41.5172 -107.1058 110° East 232 267 25,100  Level Denver Center
Thu 01:08:13 PM 41.4936 -107.0167 109° East 231 266 25,100  Level Denver Center
Thu 01:09:15 PM 41.4775 -106.9514 108° East 232 267 25,100  Level Denver Center
Thu 01:10:17 PM 41.4514 -106.8611 111° Southeast 233 268 25,100  Level Denver Center
Thu 01:11:19 PM 41.4289 -106.7689 108° East 235 270 25,100  Level Denver Center
Thu 01:12:22 PM 41.4064 -106.6900 111° Southeast 237 273 25,100  Level Denver Center
Thu 01:13:24 PM 41.3814 -106.5967 110° East 239 275 25,100  Level Denver Center
Thu 01:14:26 PM 41.3569 -106.5053 110° East 246 283 25,100  Level Denver Center
Thu 01:15:28 PM 41.3344 -106.4236 110° East 245 282 25,100  Level Denver Center
Thu 01:16:30 PM 41.3089 -106.3292 110° East 243 280 25,100  Level Denver Center
Thu 01:17:32 PM 41.2847 -106.2444 111° Southeast 243 280 25,100  Level Denver Center
Thu 01:18:34 PM 41.2639 -106.1669 110° East 236 272 25,100  Level Denver Center
Thu 01:19:36 PM 41.2397 -106.0803 110° East 233 268 25,100  Level Denver Center
Thu 01:20:38 PM 41.2189 -106.0019 109° East 235 270 25,100  Level Denver Center
Thu 01:21:40 PM 41.1942 -105.9119 110° East 232 267 25,100  Level Denver Center
Thu 01:22:42 PM 41.1725 -105.8353 111° Southeast 231 266 25,100 -629 Level Denver Center
Thu 01:23:44 PM 41.1467 -105.7447 111° Southeast 234 269 23,800 -1,210 Descending Denver Center
Thu 01:24:46 PM 41.1253 -105.6675 110° East 234 269 22,600 -1,258 Descending Denver Center
Thu 01:25:48 PM 41.1014 -105.5831 111° Southeast 222 255 21,200 -1,210 Descending Denver Center
Thu 01:26:50 PM 41.0811 -105.5114 111° Southeast 218 251 20,100 -1,113 Descending Denver Center
Thu 01:27:52 PM 41.0583 -105.4286 110° East 216 249 18,900 -1,065 Descending Denver Center
Thu 01:28:54 PM 41.0392 -105.3606 110° East 211 243 17,900 -968 Descending Denver Center
Thu 01:29:56 PM 41.0161 -105.2828 111° Southeast 206 237 16,900 -1,113 Descending Denver Center
Thu 01:30:58 PM 40.9794 -105.2344 135° Southeast 199 229 15,600 -1,248 Descending Denver Center
Thu 01:32:01 PM 40.9386 -105.1708 130° Southeast 198 228 14,300 -1,152 Descending Denver Center
Thu 01:33:03 PM 40.9025 -105.1139 130° Southeast 202 232 13,200 -581 Descending Denver Center
Thu 01:34:05 PM 40.8558 -105.0450 132° Southeast 213 245 13,100 -48 Descending Denver Center
Thu 01:35:07 PM 40.8167 -104.9886 133° Southeast 218 251 13,100 -629 Level Denver Center
Thu 01:36:09 PM 40.7725 -104.9281 134° Southeast 213 245 11,800 -1,016 Descending Denver Center
Thu 01:37:11 PM 40.7311 -104.8694 133° Southeast 215 247 11,000 -435 Descending Denver Center
Thu 01:38:13 PM 40.6917 -104.8142 133° Southeast 209 241 10,900  Descending Denver Center
Thu 01:39:15 PM 40.6489 -104.7614 137° Southeast 199 229 11,000 48 Climbing Denver Center
Thu 01:40:17 PM 40.6000 -104.7272 152° Southeast 199 229 11,000  Level Denver Center
Thu 01:41:19 PM 40.5456 -104.6881 151° Southeast 207 238 11,000  Level Denver Center
Thu 01:42:21 PM 40.4933 -104.6483 150° Southeast 215 247 11,000  Level Denver Center
Thu 01:43:23 PM 40.4331 -104.6064 152° Southeast 225 259 11,000  Level Denver Center
Thu 01:44:25 PM 40.3700 -104.5956 173° South 227 261 11,000  Level Denver Center
Thu 01:45:27 PM 40.3106 -104.5856 173° South 218 251 11,000  Level Denver Center
Thu 01:46:29 PM 40.2489 -104.6131 199° South 221 254 11,000  Level Denver Center
Thu 01:47:31 PM 40.1889 -104.6036 173° South 215 247 11,000  Level Denver Center
Thu 01:48:45 PM 40.1231 -104.6078 183° South 223 257 11,000  Level Denver Center
Thu 01:49:16 PM 40.0833 -104.6000 171° South 225 259 11,000  Level Denver TRACON
Thu 01:50:16 PM 40.0167 -104.5833 169° South 227 261 11,000  Level Denver TRACON
Thu 01:51:16 PM 39.9500 -104.5667 169° South 213 245 11,000  Level Denver TRACON
Thu 01:52:22 PM 39.8833 -104.5500 169° South 231 266 11,000  Level Denver TRACON
Thu 01:52:54 PM 39.8556 -104.5564 190° South 229 264 11,000 -64 Level Denver Center
Thu 01:53:56 PM 39.7919 -104.5531 178° South 228 262 10,900 -581 Descending Denver Center
Thu 01:54:58 PM 39.7250 -104.5456 175° South 224 258 9,800 -968 Descending Denver Center
Thu 01:56:00 PM 39.6633 -104.5386 175° South 223 257 8,900 -871 Descending Denver Center
Thu 01:57:02 PM 39.5978 -104.5303 174° South 220 253 8,000 -484 Descending Denver Center
Thu 01:58:04 PM 39.5367 -104.5381 186° South 226 260 7,900  Descending Denver Center
Thu 01:59:06 PM 39.5275 -104.6147 261° West 221 254 8,000 48 Climbing Denver Center
Thu 02:00:09 PM 39.5800 -104.6461 335° Northwest 199 229 8,000 -192 Level Denver Center
Thu 02:01:11 PM 39.6403 -104.6436 North 200 230 7,600 -387 Descending Denver Center
Thu 02:02:13 PM 39.6944 -104.6439 360° North 197 227 7,200 -387 Descending Denver Center

Login

Don't have an account? Register now (free) for customized features, flight alerts, and more!